createdAt,value
2024-04-01T00:00:45.234Z,5.0600000000000005
2024-04-01T00:03:42.807Z,5.04
2024-04-01T00:06:41.342Z,4.82
2024-04-01T00:09:38.918Z,5.0600000000000005
2024-04-01T00:12:36.469Z,5.4799999999999995
2024-04-01T00:15:34.044Z,4.720000000000001
2024-04-01T00:18:31.590Z,3.8200000000000003
2024-04-01T00:21:30.151Z,4.779999999999999
2024-04-01T00:24:30.697Z,4.74
2024-04-01T00:27:28.237Z,5.04
2024-04-01T00:30:25.773Z,4.4799999999999995
2024-04-01T00:33:23.423Z,4.0600000000000005
2024-04-01T00:36:22.886Z,4.06
2024-04-01T00:39:20.476Z,3.9200000000000004
2024-04-01T00:42:18.035Z,5.26
2024-04-01T00:45:15.572Z,5.14
2024-04-01T00:48:14.135Z,4.4399999999999995
2024-04-01T00:51:11.679Z,5.4
2024-04-01T00:54:09.220Z,4.32
2024-04-01T00:57:07.781Z,4.14
2024-04-01T01:00:08.327Z,3.8600000000000003
2024-04-01T01:03:07.875Z,4.44
2024-04-01T01:06:09.444Z,4.220000000000001
2024-04-01T01:09:07.011Z,4.26
2024-04-01T01:12:05.539Z,3.7
2024-04-01T01:15:04.129Z,4.02
2024-04-01T01:18:01.669Z,3.72
2024-04-01T01:20:59.212Z,4.3
2024-04-01T01:23:56.759Z,4.14
2024-04-01T01:26:56.354Z,4
2024-04-01T01:29:53.859Z,3.6399999999999997
2024-04-01T01:32:53.427Z,3.88
2024-04-01T01:35:53.968Z,2.9799999999999995
2024-04-01T01:38:52.524Z,3.96
2024-04-01T01:41:50.095Z,3
2024-04-01T01:44:47.694Z,4.08
2024-04-01T01:47:45.215Z,3.0800000000000005
2024-04-01T01:50:42.742Z,3.12
2024-04-01T01:53:43.331Z,3.4
2024-04-01T01:56:40.872Z,4.62
2024-04-01T01:59:38.420Z,3.3800000000000003
2024-04-01T02:02:36.992Z,3.88
2024-04-01T02:05:35.516Z,3.3600000000000003
2024-04-01T02:08:33.100Z,2.8600000000000003
2024-04-01T02:11:31.630Z,3.2199999999999998
2024-04-01T02:14:30.197Z,2.8
2024-04-01T02:17:28.762Z,2.9799999999999995
2024-04-01T02:20:26.318Z,3.4799999999999995
2024-04-01T02:23:24.913Z,2.7199999999999998
2024-04-01T02:26:22.419Z,2.5200000000000005
2024-04-01T02:29:19.951Z,3.3
2024-04-01T02:32:17.535Z,2.8
2024-04-01T02:35:15.080Z,3.2800000000000002
2024-04-01T02:38:12.632Z,3.1800000000000006
2024-04-01T02:41:11.196Z,2.14
2024-04-01T02:44:08.762Z,2.66
2024-04-01T02:47:06.323Z,3.7600000000000002
2024-04-01T02:50:03.859Z,2.62
2024-04-01T02:53:03.424Z,2.56
2024-04-01T02:56:01.008Z,2.0799999999999996
2024-04-01T02:59:03.527Z,3.0800000000000005
2024-04-01T03:02:01.435Z,2.94
2024-04-01T03:04:58.653Z,3.5199999999999996
2024-04-01T03:07:57.193Z,3.54
2024-04-01T03:10:58.708Z,2.9
2024-04-01T03:13:57.341Z,2.0799999999999996
2024-04-01T03:16:54.830Z,2.2199999999999998
2024-04-01T03:19:52.409Z,3.8200000000000003
2024-04-01T03:22:49.959Z,3.56
2024-04-01T03:25:50.546Z,2.98
2024-04-01T03:28:48.059Z,2.7199999999999998
2024-04-01T03:31:45.650Z,2.96
2024-04-01T03:34:43.171Z,3.2600000000000002
2024-04-01T03:37:41.740Z,3.6399999999999997
2024-04-01T03:43:48.817Z,4.08
2024-04-01T03:46:46.351Z,3.02
2024-04-01T03:49:43.917Z,3.56
2024-04-01T03:52:42.482Z,3.9200000000000004
2024-04-01T03:55:42.020Z,3.8200000000000003
2024-04-01T03:58:39.595Z,2.68
2024-04-01T04:01:37.168Z,2.7800000000000002
2024-04-01T04:04:34.703Z,2.62
2024-04-01T04:07:32.249Z,2.44
2024-04-01T04:10:29.792Z,7.480000000000001
2024-04-01T04:13:27.361Z,5.04
2024-04-01T04:16:24.926Z,3.6599999999999993
2024-04-01T04:19:26.502Z,3.46
2024-04-01T04:22:25.033Z,3.46
2024-04-01T04:25:23.575Z,4.54
2024-04-01T04:28:21.135Z,5.159999999999999
2024-04-01T04:31:19.686Z,3.3
2024-04-01T04:34:17.254Z,3.7
2024-04-01T04:37:16.803Z,3.56
2024-04-01T04:40:15.347Z,2.54
2024-04-01T04:43:12.924Z,2.54
2024-04-01T04:46:13.484Z,2.7199999999999998
2024-04-01T04:49:11.043Z,2.3600000000000003
2024-04-01T04:52:09.580Z,2.06
2024-04-01T04:55:07.127Z,2.04
2024-04-01T04:58:04.689Z,2.72
2024-04-01T05:01:06.237Z,2.02
2024-04-01T05:04:05.793Z,2.0799999999999996
2024-04-01T05:07:03.351Z,2.16
2024-04-01T05:10:00.891Z,2.42
2024-04-01T05:12:59.424Z,2.2399999999999998
2024-04-01T05:15:57.194Z,1.7600000000000002
2024-04-01T05:18:54.563Z,2.1800000000000006
2024-04-01T05:21:52.468Z,2.8
2024-04-01T05:24:50.687Z,2.46
2024-04-01T05:27:48.219Z,2.82
2024-04-01T05:30:47.773Z,2.66
2024-04-01T05:33:46.324Z,2.12
2024-04-01T05:36:43.878Z,2.8200000000000003
2024-04-01T05:39:41.438Z,2.3800000000000003
2024-04-01T05:42:39.001Z,2.94
2024-04-01T05:45:36.562Z,2.94
2024-04-01T05:48:34.096Z,3.1399999999999997
2024-04-01T05:51:31.667Z,3.3
2024-04-01T05:54:30.232Z,2.5799999999999996
2024-04-01T05:57:27.782Z,3.1600000000000006
2024-04-01T06:00:27.350Z,2.68
2024-04-01T06:03:26.879Z,3.2199999999999998
2024-04-01T06:06:24.448Z,3
2024-04-01T06:09:21.996Z,3.12
2024-04-01T06:12:19.559Z,2.8
2024-04-01T06:15:17.146Z,2.2399999999999998
2024-04-01T06:18:14.666Z,2.54
2024-04-01T06:21:12.582Z,2.6799999999999997
2024-04-01T06:24:10.789Z,2.2399999999999998
2024-04-01T06:27:08.357Z,2.1
2024-04-01T06:30:05.869Z,2.3600000000000003
2024-04-01T06:33:03.434Z,3.1800000000000006
2024-04-01T06:36:02.332Z,2.46
2024-04-01T06:38:59.560Z,2.54
2024-04-01T06:41:57.111Z,2.8200000000000003
2024-04-01T06:44:55.660Z,2.5
2024-04-01T06:47:53.253Z,2.88
2024-04-01T06:50:50.758Z,2.24
2024-04-01T06:53:51.340Z,2.2600000000000002
2024-04-01T06:56:49.988Z,2.5799999999999996
2024-04-01T06:59:47.460Z,2.72
2024-04-01T07:02:45.021Z,2.3600000000000003
2024-04-01T07:05:43.570Z,2.5799999999999996
2024-04-01T07:08:41.105Z,2.5
2024-04-01T07:11:38.663Z,1.7200000000000002
2024-04-01T07:14:36.235Z,3.62
2024-04-01T07:17:34.774Z,2.52
2024-04-01T07:20:37.641Z,2.72
2024-04-01T07:23:34.906Z,2.38
2024-04-01T07:26:32.438Z,1.92
2024-04-01T07:29:29.964Z,2.62
2024-04-01T07:32:27.552Z,3.22
2024-04-01T07:35:25.119Z,2.3
2024-04-01T07:38:22.662Z,3.12
2024-04-01T07:41:20.222Z,2
2024-04-01T07:44:17.795Z,2.7600000000000007
2024-04-01T07:47:15.344Z,3.4800000000000004
2024-04-01T07:50:12.927Z,2.54
2024-04-01T07:53:11.452Z,3.3
2024-04-01T07:56:08.998Z,2.62
2024-04-01T07:59:08.573Z,2.2199999999999998
2024-04-01T08:02:07.090Z,3.2800000000000002
2024-04-01T08:05:06.671Z,2.7800000000000002
2024-04-01T08:08:05.196Z,2.8000000000000003
2024-04-01T08:11:02.784Z,3.14
2024-04-01T08:14:00.382Z,3.46
2024-04-01T08:16:57.852Z,4.459999999999999
2024-04-01T08:19:55.452Z,2.32
2024-04-01T08:22:53.339Z,3.4
2024-04-01T08:25:51.537Z,3.4200000000000004
2024-04-01T08:28:52.092Z,4.28
2024-04-01T08:31:49.675Z,3.6399999999999997
2024-04-01T08:34:48.224Z,3.22
2024-04-01T08:37:45.760Z,4.74
2024-04-01T08:40:47.285Z,3.8400000000000007
2024-04-01T08:43:47.829Z,5.220000000000001
2024-04-01T08:46:47.415Z,3.54
2024-04-01T08:49:51.948Z,4.32
2024-04-01T08:52:54.494Z,3.6399999999999997
2024-04-01T08:55:52.052Z,4.4399999999999995
2024-04-01T08:58:50.596Z,4.76
2024-04-01T09:01:48.163Z,3.4799999999999995
2024-04-01T09:04:46.730Z,4.260000000000001
2024-04-01T09:07:48.263Z,4.760000000000001
2024-04-01T09:10:46.228Z,3.46
2024-04-01T09:13:47.346Z,3.8
2024-04-01T09:16:44.925Z,4.26
2024-04-01T09:19:44.475Z,3.62
2024-04-01T09:22:42.026Z,5.82
2024-04-01T09:25:39.661Z,4.279999999999999
2024-04-01T09:28:37.152Z,3.6399999999999997
2024-04-01T09:31:34.706Z,4.04
2024-04-01T09:34:33.251Z,4.340000000000001
2024-04-01T09:37:30.811Z,4.64
2024-04-01T09:40:28.376Z,4.78
2024-04-01T09:43:42.932Z,4.5200000000000005
2024-04-01T09:46:45.438Z,5.88
2024-04-01T09:49:45.334Z,4.840000000000001
2024-04-01T09:56:08.998Z,5.220000000000001
2024-04-01T09:59:36.495Z,5.38
2024-04-01T10:03:02.030Z,4.4
2024-04-01T10:06:26.503Z,4.68
2024-04-01T10:10:05.364Z,4.840000000000001
2024-04-01T10:13:34.411Z,4.92
2024-04-01T10:16:53.902Z,5.5200000000000005
2024-04-01T10:20:05.443Z,5.36
2024-04-01T10:23:38.931Z,4.42
2024-04-01T10:27:03.429Z,5.279999999999999
2024-04-01T10:30:41.846Z,3.9
2024-04-01T10:34:12.294Z,4.8
2024-04-01T10:37:31.794Z,4.74
2024-04-01T10:40:46.363Z,4.0600000000000005
2024-04-01T10:44:24.807Z,4.539999999999999
2024-04-01T10:47:53.361Z,3.9599999999999995
2024-04-01T10:51:14.789Z,4.64
2024-04-01T10:54:29.305Z,4.119999999999999
2024-04-01T10:57:56.769Z,5.3
2024-04-01T11:01:32.213Z,4.5
2024-04-01T11:04:58.714Z,4.62
2024-04-01T11:08:13.225Z,3.84
2024-04-01T11:11:32.504Z,3.9599999999999995
2024-04-01T11:14:34.280Z,2.8000000000000003
2024-04-01T11:17:34.807Z,4.0600000000000005
2024-04-01T11:20:47.334Z,5.4799999999999995
2024-04-01T11:24:03.858Z,5.3
2024-04-01T11:27:23.360Z,4.74
2024-04-01T11:30:35.854Z,4.4
2024-04-01T11:33:51.401Z,5.4799999999999995
2024-04-01T11:37:00.925Z,4.88
2024-04-01T11:43:11.993Z,4.499999999999999
2024-04-01T11:46:13.566Z,5.340000000000001
2024-04-01T11:49:11.108Z,6.18
2024-04-01T11:52:13.599Z,6.58
2024-04-01T11:55:13.201Z,4.94
2024-04-01T11:58:12.747Z,4.9399999999999995
2024-04-01T12:01:11.304Z,4.08
2024-04-01T12:04:18.829Z,5.540000000000001
2024-04-01T12:07:17.359Z,4.66
2024-04-01T12:10:15.951Z,5.659999999999999
2024-04-01T12:13:15.505Z,5.74
2024-04-01T12:16:14.068Z,7.08
2024-04-01T12:19:20.967Z,5.680000000000001
2024-04-01T12:22:20.099Z,5.88
2024-04-01T12:25:17.697Z,5.92
2024-04-01T12:28:17.217Z,4.2
2024-04-01T12:31:20.570Z,5.32
2024-04-01T12:34:21.316Z,5.760000000000001
2024-04-01T12:37:23.862Z,4.9399999999999995
2024-04-01T12:40:25.425Z,4.9399999999999995
2024-04-01T12:43:22.963Z,6.06
2024-04-01T12:46:20.546Z,6.0200000000000005
2024-04-01T12:49:22.067Z,5.4799999999999995
2024-04-01T12:52:26.596Z,4.9
2024-04-01T12:55:34.138Z,4.96
2024-04-01T12:58:47.698Z,5.68
2024-04-01T13:01:59.212Z,5.74
2024-04-01T13:05:13.700Z,4.74
2024-04-01T13:08:34.235Z,5.04
2024-04-01T13:11:45.741Z,4.62
2024-04-01T13:14:59.255Z,6.6
2024-04-01T13:18:12.776Z,5.040000000000001
2024-04-01T13:21:22.273Z,5.0600000000000005
2024-04-01T13:24:28.808Z,5.779999999999999
2024-04-01T13:27:37.354Z,5.3
2024-04-01T13:30:48.860Z,4.32
2024-04-01T13:34:02.738Z,6.840000000000001
2024-04-01T13:37:11.921Z,4.7
2024-04-01T13:40:24.479Z,4.7
2024-04-01T13:43:36.954Z,5.500000000000001
2024-04-01T13:46:48.497Z,5.08
2024-04-01T13:50:04.001Z,4.48
2024-04-01T13:53:24.490Z,5.6
2024-04-01T13:56:35.196Z,4.1
2024-04-01T13:59:45.576Z,4.86
2024-04-01T14:02:54.064Z,4.96
2024-04-01T14:06:14.588Z,4.82
2024-04-01T14:09:25.094Z,4.96
2024-04-01T14:12:32.624Z,4.94
2024-04-01T14:15:35.221Z,4.04
2024-04-01T14:18:49.650Z,4.12
2024-04-01T14:21:47.180Z,5
2024-04-01T14:24:57.752Z,4.7
2024-04-01T14:27:55.307Z,5.2
2024-04-01T14:30:52.861Z,3.88
2024-04-01T14:33:51.409Z,4.6
2024-04-01T14:36:48.971Z,3.34
2024-04-01T14:39:52.525Z,4.159999999999999
2024-04-01T14:42:50.085Z,4.5
2024-04-01T14:45:48.609Z,5.659999999999999
2024-04-01T14:48:47.195Z,4.4
2024-04-01T14:51:45.757Z,4.959999999999999
2024-04-01T14:54:44.299Z,4.32
2024-04-01T14:57:43.889Z,5.08
2024-04-01T15:00:43.395Z,3.5199999999999996
2024-04-01T15:03:41.954Z,3.1399999999999997
2024-04-01T15:06:39.496Z,4.96
2024-04-01T15:09:43.061Z,4.28
2024-04-01T15:12:40.596Z,3.94
2024-04-01T15:15:40.174Z,4.42
2024-04-01T15:18:37.708Z,4.279999999999999
2024-04-01T15:21:36.296Z,3.4799999999999995
2024-04-01T15:24:34.815Z,4.6
2024-04-01T15:27:32.348Z,4.08
2024-04-01T15:30:31.927Z,3.94
2024-04-01T15:33:30.474Z,5.04
2024-04-01T15:36:28.039Z,4.359999999999999
2024-04-01T15:39:25.635Z,3.5199999999999996
2024-04-01T15:42:23.179Z,3.9
2024-04-01T15:45:20.710Z,4.4
2024-04-01T15:48:20.286Z,3.88
2024-04-01T15:51:18.804Z,3.5799999999999996
2024-04-01T15:54:17.378Z,3.6399999999999997
2024-04-01T15:57:15.932Z,5.3999999999999995
2024-04-01T16:00:19.500Z,5.62
2024-04-01T16:03:19.024Z,3.5
2024-04-01T16:06:17.587Z,3.4
2024-04-01T16:09:16.175Z,4.460000000000001
2024-04-01T16:12:16.659Z,3.9
2024-04-01T16:15:15.230Z,3.3
2024-04-01T16:18:14.777Z,4.54
2024-04-01T16:21:16.321Z,4.9399999999999995
2024-04-01T16:24:15.900Z,3.62
2024-04-01T16:27:19.599Z,2.66
2024-04-01T16:30:21.982Z,3.3599999999999994
2024-04-01T16:33:20.498Z,3.6800000000000006
2024-04-01T16:36:34.866Z,3.94
2024-04-01T16:39:32.591Z,3.96
2024-04-01T16:42:33.487Z,4.7
2024-04-01T16:45:32.019Z,4.5
2024-04-01T16:48:30.244Z,5.2
2024-04-01T16:51:28.799Z,5.66
2024-04-01T16:54:29.348Z,4.96
2024-04-01T16:57:28.906Z,4.62
2024-04-01T17:00:26.497Z,4.640000000000001
2024-04-01T17:03:24.970Z,3.54
2024-04-01T17:06:24.559Z,4.7
2024-04-01T17:09:31.110Z,4.76
2024-04-01T17:12:29.708Z,5.68
2024-04-01T17:15:29.194Z,4.04
2024-04-01T17:18:27.768Z,5.680000000000001
2024-04-01T17:21:27.302Z,5.26
2024-04-01T17:24:24.863Z,5.859999999999999
2024-04-01T17:27:23.403Z,4.12
2024-04-01T17:30:22.994Z,5.300000000000001
2024-04-01T17:33:23.537Z,5.68
2024-04-01T17:36:21.085Z,5.500000000000001
2024-04-01T17:39:28.608Z,5.36
2024-04-01T17:42:27.214Z,5.5600000000000005
2024-04-01T17:45:29.726Z,5.92
2024-04-01T17:48:31.307Z,5.279999999999999
2024-04-01T17:51:29.815Z,5.76
2024-04-01T17:54:28.356Z,6.739999999999999
2024-04-01T17:57:25.927Z,6.42
2024-04-01T18:00:28.511Z,14.319999999999999
2024-04-01T18:03:33.011Z,10.919999999999998
2024-04-01T18:06:42.687Z,6.480000000000001
2024-04-01T18:09:42.078Z,5.9
2024-04-01T18:12:40.659Z,5.92
2024-04-01T18:15:38.159Z,6.220000000000001
2024-04-01T18:18:37.706Z,5.859999999999999
2024-04-01T18:21:36.303Z,5.7
2024-04-01T18:24:34.833Z,6.519999999999999
2024-04-01T18:27:38.362Z,4.7
2024-04-01T18:30:39.379Z,4.42
2024-04-01T18:33:42.469Z,5.0600000000000005
2024-04-01T18:36:51.493Z,4.840000000000001
2024-04-01T18:39:50.540Z,3.6399999999999997
2024-04-01T18:42:54.105Z,3.8600000000000003
2024-04-01T18:45:57.639Z,3.7400000000000007
2024-04-01T18:49:04.165Z,3.94
2024-04-01T18:52:09.722Z,4.499999999999999
2024-04-01T18:55:11.236Z,4.0600000000000005
2024-04-01T18:58:13.808Z,4.12
2024-04-01T19:01:20.616Z,3.7
2024-04-01T19:04:21.879Z,3.78
2024-04-01T19:07:26.420Z,3.5
2024-04-01T19:10:28.255Z,4.680000000000001
2024-04-01T19:13:27.536Z,4.3999999999999995
2024-04-01T19:16:25.100Z,3.46
2024-04-01T19:19:28.474Z,4.319999999999999
2024-04-01T19:22:28.154Z,4.5200000000000005
2024-04-01T19:25:25.726Z,4.340000000000001
2024-04-01T19:28:23.372Z,3.9599999999999995
2024-04-01T19:31:28.852Z,4.5200000000000005
2024-04-01T19:34:28.688Z,4.66
2024-04-01T19:37:32.919Z,4.12
2024-04-01T19:40:35.451Z,3.46
2024-04-01T19:43:34.034Z,3.88
2024-04-01T19:46:35.554Z,4.0600000000000005
2024-04-01T19:49:33.121Z,3.7800000000000002
2024-04-01T19:52:34.956Z,4.24
2024-04-01T19:55:37.216Z,4.16
2024-04-01T19:58:38.749Z,3.1800000000000006
2024-04-01T20:05:09.796Z,4.42
2024-04-01T20:08:15.361Z,2.7199999999999998
2024-04-01T20:11:17.848Z,4.54
2024-04-01T20:14:17.401Z,2.54
2024-04-01T20:17:25.462Z,2.94
2024-04-01T20:20:32.463Z,3.2600000000000002
2024-04-01T20:23:32.031Z,3.7800000000000002
2024-04-01T20:26:31.766Z,2.2800000000000002
2024-04-01T20:29:36.091Z,4.16
2024-04-01T20:32:40.939Z,3.4200000000000004
2024-04-01T20:35:43.550Z,2.88
2024-04-01T20:38:41.734Z,3.4799999999999995
2024-04-01T20:41:50.625Z,3.3
2024-04-01T20:44:48.875Z,3.3400000000000007
2024-04-01T20:47:48.383Z,3.38
2024-04-01T20:54:21.895Z,3.5
2024-04-01T20:57:18.978Z,2.9799999999999995
2024-04-01T21:00:29.498Z,3.3600000000000003
2024-04-01T21:03:29.016Z,3.2600000000000002
2024-04-01T21:06:31.588Z,3.34
2024-04-01T21:09:34.109Z,3.3
2024-04-01T21:12:31.667Z,2.9799999999999995
2024-04-01T21:15:29.216Z,3.04
2024-04-01T21:18:27.838Z,3.16
2024-04-01T21:21:25.375Z,3.72
2024-04-01T21:24:23.892Z,3.62
2024-04-01T21:27:25.465Z,4.4
2024-04-01T21:30:23.992Z,3.2399999999999998
2024-04-01T21:33:21.575Z,2.96
2024-04-01T21:36:19.107Z,3.3200000000000003
2024-04-01T21:39:16.686Z,2.9799999999999995
2024-04-01T21:42:14.213Z,3.5800000000000005
2024-04-01T21:45:12.798Z,3
2024-04-01T21:48:12.336Z,2.7
2024-04-01T21:51:09.919Z,3.2600000000000002
2024-04-01T21:54:07.449Z,3.0799999999999996
2024-04-01T21:57:04.991Z,2.1399999999999997
2024-04-01T22:00:08.674Z,2.6599999999999997
2024-04-01T22:03:08.082Z,3.06
2024-04-01T22:06:10.132Z,2.52
2024-04-01T22:09:09.191Z,2.3600000000000003
2024-04-01T22:12:07.763Z,2.52
2024-04-01T22:15:05.286Z,2.1399999999999997
2024-04-01T22:18:02.875Z,2.7600000000000002
2024-04-01T22:21:01.410Z,2.28
2024-04-01T22:23:59.976Z,2.04
2024-04-01T22:26:59.531Z,2.5799999999999996
2024-04-01T22:30:00.139Z,3.0799999999999996
2024-04-01T22:32:57.697Z,2.84
2024-04-01T22:35:56.374Z,3.5200000000000005
2024-04-01T22:38:53.765Z,3.1799999999999997
2024-04-01T22:41:51.305Z,2.7399999999999998
2024-04-01T22:44:50.871Z,2.24
2024-04-01T22:47:49.420Z,2.88
2024-04-01T22:50:47.955Z,2.5200000000000005
2024-04-01T22:53:45.526Z,3.04
2024-04-01T22:56:43.079Z,2.66
2024-04-01T22:59:40.611Z,2.5799999999999996
2024-04-01T23:02:38.194Z,3
2024-04-01T23:05:36.727Z,3.8600000000000003
2024-04-01T23:08:34.315Z,3.0799999999999996
2024-04-01T23:11:32.880Z,2.2399999999999998
2024-04-01T23:14:33.677Z,2.4
2024-04-01T23:17:32.951Z,4.02
2024-04-01T23:20:30.545Z,2.86
2024-04-01T23:23:30.085Z,3.3400000000000007
2024-04-01T23:26:31.963Z,3.06
2024-04-01T23:29:29.163Z,5.98
2024-04-01T23:32:26.737Z,6.160000000000001
2024-04-01T23:35:24.290Z,4.82
2024-04-01T23:38:21.828Z,4.5
2024-04-01T23:41:19.737Z,3.1800000000000006
2024-04-01T23:44:17.965Z,3
2024-04-01T23:47:15.484Z,3.2
2024-04-01T23:50:13.065Z,7.359999999999999
2024-04-01T23:53:12.738Z,4.58
2024-04-01T23:56:12.163Z,3.78
2024-04-01T23:59:10.949Z,3.66
